createdAt,value
2023-03-29T00:01:34.855Z,53.88
2023-03-29T00:04:42.496Z,53.55
2023-03-29T00:07:54.585Z,54.47
2023-03-29T00:11:04.093Z,54.57
2023-03-29T00:14:11.723Z,55.05
2023-03-29T00:17:17.879Z,55.71
2023-03-29T00:20:24.772Z,56.21
2023-03-29T00:23:31.025Z,56.27
2023-03-29T00:26:40.449Z,56.13
2023-03-29T00:29:46.582Z,56.21
2023-03-29T00:32:53.701Z,55.92
2023-03-29T00:35:59.804Z,55.99
2023-03-29T00:39:06.930Z,56.51
2023-03-29T00:42:20.463Z,56.67
2023-03-29T00:45:36.279Z,56.83
2023-03-29T00:48:42.356Z,57.60
2023-03-29T00:51:50.322Z,57.74
2023-03-29T00:55:02.892Z,57.99
2023-03-29T00:58:19.928Z,58.18
2023-03-29T01:01:35.817Z,58.48
2023-03-29T01:04:50.713Z,58.68
2023-03-29T01:08:07.049Z,59.23
2023-03-29T01:11:22.528Z,60.13
2023-03-29T01:14:42.097Z,61.01
2023-03-29T01:17:52.037Z,61.36
2023-03-29T01:21:24.333Z,61.66
2023-03-29T01:25:02.849Z,62.63
2023-03-29T01:28:22.648Z,62.58
2023-03-29T01:31:36.174Z,63.28
2023-03-29T01:34:55.054Z,63.83
2023-03-29T01:38:11.766Z,63.78
2023-03-29T01:41:18.185Z,63.98
2023-03-29T01:44:45.681Z,63.90
2023-03-29T01:48:05.708Z,64.10
2023-03-29T01:51:21.621Z,64.27
2023-03-29T01:54:38.881Z,64.63
2023-03-29T01:57:50.429Z,64.93
2023-03-29T02:01:05.972Z,65.20
2023-03-29T02:04:20.087Z,65.41
2023-03-29T02:07:37.644Z,65.35
2023-03-29T02:10:45.612Z,65.69
2023-03-29T02:13:51.877Z,66.02
2023-03-29T02:17:19.384Z,66.02
2023-03-29T02:20:37.236Z,65.97
2023-03-29T02:23:49.686Z,66.51
2023-03-29T02:26:56.130Z,66.87
2023-03-29T02:30:08.851Z,66.97
2023-03-29T02:33:26.040Z,67.14
2023-03-29T02:36:43.630Z,67.13
2023-03-29T02:39:54.706Z,67.36
2023-03-29T02:43:04.551Z,67.43
2023-03-29T02:46:13.980Z,67.75
2023-03-29T02:49:23.929Z,68.13
2023-03-29T02:52:39.600Z,67.91
2023-03-29T02:55:47.225Z,68.00
2023-03-29T02:58:53.312Z,68.23
2023-03-29T03:02:00.515Z,68.44
2023-03-29T03:05:11.758Z,68.55
2023-03-29T03:08:19.057Z,68.49
2023-03-29T03:11:26.289Z,68.24
2023-03-29T03:14:33.126Z,68.27
2023-03-29T03:17:41.297Z,68.76
2023-03-29T03:20:59.586Z,69.26
2023-03-29T03:24:10.457Z,69.60
2023-03-29T03:27:19.239Z,69.78
2023-03-29T03:30:25.983Z,70.10
2023-03-29T03:33:51.556Z,70.57
2023-03-29T03:37:29.547Z,70.64
2023-03-29T03:40:36.552Z,70.58
2023-03-29T03:43:46.336Z,70.41
2023-03-29T03:47:00.382Z,70.40
2023-03-29T03:50:15.815Z,70.30
2023-03-29T03:53:27.541Z,70.47
2023-03-29T03:56:53.856Z,70.96
2023-03-29T04:00:19.558Z,70.99
2023-03-29T04:03:39.393Z,71.23
2023-03-29T04:06:48.569Z,71.23
2023-03-29T04:10:16.804Z,71.77
2023-03-29T04:13:31.773Z,72.10
2023-03-29T04:16:51.469Z,72.80
2023-03-29T04:20:24.726Z,72.79
2023-03-29T04:23:39.182Z,72.52
2023-03-29T04:26:50.279Z,73.00
2023-03-29T04:30:05.186Z,73.45
2023-03-29T04:33:32.433Z,73.99
2023-03-29T04:36:40.617Z,74.70
2023-03-29T04:39:55.763Z,75.55
2023-03-29T04:43:05.018Z,75.76
2023-03-29T04:46:13.477Z,75.72
2023-03-29T04:49:40.323Z,75.11
2023-03-29T04:52:52.395Z,74.92
2023-03-29T04:55:59.801Z,75.08
2023-03-29T04:59:35.417Z,75.11
2023-03-29T05:02:48.527Z,74.62
2023-03-29T05:06:15.463Z,74.37
2023-03-29T05:09:28.389Z,74.12
2023-03-29T05:12:41.746Z,73.37
2023-03-29T05:15:50.540Z,73.41
2023-03-29T05:18:57.450Z,72.85
2023-03-29T05:22:05.188Z,72.27
2023-03-29T05:25:14.463Z,71.47
2023-03-29T05:28:23.617Z,70.80
2023-03-29T05:31:33.130Z,69.92
2023-03-29T05:34:39.608Z,68.52
2023-03-29T05:37:47.644Z,67.18
2023-03-29T05:40:56.684Z,65.39
2023-03-29T05:44:10.927Z,63.17
2023-03-29T05:47:24.113Z,60.44
2023-03-29T05:50:32.313Z,58.74
2023-03-29T05:53:41.520Z,57.15
2023-03-29T05:56:48.495Z,55.90
2023-03-29T05:59:58.944Z,53.71
2023-03-29T06:03:19.922Z,52.94
2023-03-29T06:06:27.007Z,50.76
2023-03-29T06:09:34.243Z,49.41
2023-03-29T06:12:43.324Z,47.10
2023-03-29T06:15:50.317Z,44.11
2023-03-29T06:19:08.441Z,42.98
2023-03-29T06:22:17.506Z,41.55
2023-03-29T06:25:23.655Z,40.42
2023-03-29T06:28:31.234Z,39.79
2023-03-29T06:31:39.062Z,40.10
2023-03-29T06:34:51.189Z,39.19
2023-03-29T06:38:25.144Z,37.41
2023-03-29T06:41:50.555Z,40.29
2023-03-29T06:45:41.822Z,39.57
2023-03-29T06:48:58.879Z,39.37
2023-03-29T06:52:29.369Z,39.92
2023-03-29T06:55:36.406Z,39.69
2023-03-29T06:59:08.807Z,39.54
2023-03-29T07:02:23.492Z,38.68
2023-03-29T07:05:41.060Z,39.54
2023-03-29T07:09:00.129Z,39.68
2023-03-29T07:12:25.400Z,39.71
2023-03-29T07:15:37.070Z,40.37
2023-03-29T07:18:59.220Z,40.25
2023-03-29T07:22:49.461Z,39.92
2023-03-29T07:25:58.555Z,39.90
2023-03-29T07:29:13.560Z,39.97
2023-03-29T07:32:19.648Z,40.10
2023-03-29T07:35:36.461Z,39.51
2023-03-29T07:38:49.462Z,38.02
2023-03-29T07:42:10.323Z,39.10
2023-03-29T07:45:26.900Z,37.44
2023-03-29T07:48:46.477Z,37.69
2023-03-29T07:51:54.329Z,38.73
2023-03-29T07:55:02.542Z,37.87
2023-03-29T07:58:36.187Z,35.67
2023-03-29T08:01:50.436Z,35.90
2023-03-29T08:05:29.165Z,34.33
2023-03-29T08:08:50.477Z,34.83
2023-03-29T08:11:57.887Z,34.74
2023-03-29T08:15:19.750Z,34.21
2023-03-29T08:18:26.569Z,33.41
2023-03-29T08:21:33.791Z,33.59
2023-03-29T08:24:42.806Z,33.20
2023-03-29T08:27:50.115Z,32.16
2023-03-29T08:31:11.435Z,32.42
2023-03-29T08:34:21.703Z,32.64
2023-03-29T08:37:39.534Z,32.68
2023-03-29T08:40:46.977Z,32.64
2023-03-29T08:44:20.889Z,35.00
2023-03-29T08:47:55.558Z,34.81
2023-03-29T08:51:09.945Z,32.55
2023-03-29T08:54:29.020Z,32.28
2023-03-29T08:58:11.469Z,30.60
2023-03-29T09:01:19.128Z,30.84
2023-03-29T09:04:42.817Z,30.86
2023-03-29T09:08:02.167Z,30.46
2023-03-29T09:11:42.149Z,29.54
2023-03-29T09:15:15.628Z,27.95
2023-03-29T09:18:51.858Z,29.64
2023-03-29T09:22:22.757Z,29.94
2023-03-29T09:25:53.446Z,29.41
2023-03-29T09:29:36.646Z,28.44
2023-03-29T09:32:56.247Z,27.75
2023-03-29T09:36:21.840Z,29.32
2023-03-29T09:39:36.523Z,26.36
2023-03-29T09:42:57.737Z,27.04
2023-03-29T09:46:16.420Z,27.91
2023-03-29T09:49:34.689Z,26.67
2023-03-29T09:52:41.238Z,23.66
2023-03-29T09:55:59.463Z,24.53
2023-03-29T09:59:16.325Z,27.71
2023-03-29T10:02:28.286Z,23.65
2023-03-29T10:05:40.354Z,21.60
2023-03-29T10:09:01.766Z,21.83
2023-03-29T10:12:20.818Z,22.04
2023-03-29T10:15:33.154Z,23.31
2023-03-29T10:18:47.544Z,22.60
2023-03-29T10:21:55.921Z,23.80
2023-03-29T10:25:02.481Z,18.78
2023-03-29T10:28:21.405Z,20.95
2023-03-29T10:31:31.690Z,22.45
2023-03-29T10:34:39.393Z,24.16
2023-03-29T10:37:52.338Z,22.35
2023-03-29T10:41:09.459Z,22.96
2023-03-29T10:44:36.055Z,22.24
2023-03-29T10:47:51.489Z,23.11
2023-03-29T10:51:03.724Z,23.65
2023-03-29T10:54:20.730Z,22.92
2023-03-29T10:57:44.403Z,24.08
2023-03-29T11:01:00.179Z,23.69
2023-03-29T11:04:32.435Z,24.43
2023-03-29T11:07:59.461Z,24.59
2023-03-29T11:11:32.140Z,25.20
2023-03-29T11:15:03.860Z,26.54
2023-03-29T11:18:52.305Z,28.27
2023-03-29T11:22:16.914Z,28.73
2023-03-29T11:25:44.006Z,29.71
2023-03-29T11:29:01.035Z,28.27
2023-03-29T11:32:29.323Z,28.49
2023-03-29T11:35:52.235Z,29.39
2023-03-29T11:39:19.549Z,27.56
2023-03-29T11:42:47.858Z,28.54
2023-03-29T11:46:03.457Z,29.97
2023-03-29T11:49:28.565Z,29.90
2023-03-29T11:52:53.755Z,30.63
2023-03-29T11:56:16.682Z,29.14
2023-03-29T11:59:36.076Z,29.25
2023-03-29T12:02:53.206Z,30.39
2023-03-29T12:06:10.058Z,29.05
2023-03-29T12:09:34.828Z,29.57
2023-03-29T12:12:53.160Z,29.25
2023-03-29T12:16:14.637Z,28.47
2023-03-29T12:19:32.031Z,29.48
2023-03-29T12:22:41.707Z,28.93
2023-03-29T12:26:07.018Z,29.37
2023-03-29T12:29:48.760Z,30.38
2023-03-29T12:33:27.877Z,31.71
2023-03-29T12:37:12.253Z,31.36
2023-03-29T12:40:46.754Z,30.78
2023-03-29T12:44:23.762Z,30.22
2023-03-29T12:47:44.436Z,30.51
2023-03-29T12:51:01.132Z,31.26
2023-03-29T12:54:16.455Z,30.70
2023-03-29T12:57:30.175Z,31.34
2023-03-29T13:00:50.680Z,30.28
2023-03-29T13:04:17.217Z,29.93
2023-03-29T13:07:36.857Z,30.13
2023-03-29T13:10:46.031Z,29.54
2023-03-29T13:13:55.818Z,30.29
2023-03-29T13:17:18.487Z,30.39
2023-03-29T13:20:48.506Z,32.13
2023-03-29T13:24:14.058Z,32.47
2023-03-29T13:27:39.992Z,32.00
2023-03-29T13:31:02.928Z,32.10
2023-03-29T13:34:35.002Z,31.85
2023-03-29T13:38:01.082Z,31.53
2023-03-29T13:41:10.141Z,32.29
2023-03-29T13:44:44.717Z,32.91
2023-03-29T13:48:04.238Z,33.16
2023-03-29T13:51:36.628Z,32.93
2023-03-29T13:54:53.225Z,33.49
2023-03-29T13:58:07.603Z,32.85
2023-03-29T14:01:28.450Z,32.38
2023-03-29T14:04:47.515Z,34.08
2023-03-29T14:07:58.953Z,32.63
2023-03-29T14:11:11.349Z,32.56
2023-03-29T14:14:18.347Z,31.80
2023-03-29T14:17:28.005Z,32.95
2023-03-29T14:20:37.997Z,33.35
2023-03-29T14:24:08.451Z,33.06
2023-03-29T14:27:16.525Z,32.85
2023-03-29T14:30:30.934Z,33.77
2023-03-29T14:33:38.406Z,33.98
2023-03-29T14:36:49.368Z,34.11
2023-03-29T14:39:59.757Z,35.01
2023-03-29T14:43:17.683Z,35.21
2023-03-29T14:46:25.996Z,35.08
2023-03-29T14:49:35.067Z,34.42
2023-03-29T14:52:41.696Z,35.11
2023-03-29T14:56:01.945Z,34.08
2023-03-29T14:59:38.454Z,34.15
2023-03-29T15:02:53.660Z,33.64
2023-03-29T15:06:11.547Z,33.70
2023-03-29T15:09:31.199Z,33.43
2023-03-29T15:12:46.743Z,33.46
2023-03-29T15:16:00.343Z,33.97
2023-03-29T15:19:09.619Z,34.43
2023-03-29T15:22:16.471Z,34.53
2023-03-29T15:25:24.522Z,34.97
2023-03-29T15:28:36.842Z,33.95
2023-03-29T15:31:46.523Z,34.23
2023-03-29T15:35:05.242Z,33.73
2023-03-29T15:38:15.626Z,33.64
2023-03-29T15:41:23.473Z,34.20
2023-03-29T15:44:37.496Z,33.90
2023-03-29T15:47:45.470Z,34.09
2023-03-29T15:50:53.450Z,34.02
2023-03-29T15:54:03.940Z,33.22
2023-03-29T15:57:24.199Z,33.86
2023-03-29T16:00:34.176Z,34.50
2023-03-29T16:03:40.510Z,34.99
2023-03-29T16:07:06.734Z,34.85
2023-03-29T16:10:13.679Z,35.18
2023-03-29T16:13:20.668Z,35.56
2023-03-29T16:16:36.112Z,35.92
2023-03-29T16:19:42.980Z,36.13
2023-03-29T16:22:50.373Z,36.22
2023-03-29T16:25:59.367Z,35.71
2023-03-29T16:29:05.444Z,35.86
2023-03-29T16:32:15.667Z,35.89
2023-03-29T16:35:29.819Z,36.49
2023-03-29T16:38:36.824Z,36.03
2023-03-29T16:41:45.553Z,36.21
2023-03-29T16:44:52.575Z,35.92
2023-03-29T16:48:02.041Z,35.69
2023-03-29T16:51:10.303Z,36.01
2023-03-29T16:54:26.036Z,35.98
2023-03-29T16:57:38.100Z,36.61
2023-03-29T17:00:47.965Z,36.39
2023-03-29T17:03:58.139Z,36.92
2023-03-29T17:07:08.433Z,37.17
2023-03-29T17:10:16.805Z,37.63
2023-03-29T17:13:30.004Z,37.38
2023-03-29T17:16:36.994Z,37.96
2023-03-29T17:19:45.958Z,38.67
2023-03-29T17:22:59.875Z,39.14
2023-03-29T17:26:10.116Z,39.08
2023-03-29T17:29:27.390Z,39.48
2023-03-29T17:32:33.562Z,39.97
2023-03-29T17:35:45.487Z,39.72
2023-03-29T17:38:51.555Z,40.18
2023-03-29T17:42:04.641Z,39.34
2023-03-29T17:45:13.371Z,39.53
2023-03-29T17:48:20.499Z,39.77
2023-03-29T17:51:37.372Z,39.87
2023-03-29T17:54:50.708Z,40.65
2023-03-29T17:57:57.589Z,41.98
2023-03-29T18:01:14.996Z,42.38
2023-03-29T18:04:21.490Z,43.23
2023-03-29T18:07:31.135Z,43.18
2023-03-29T18:10:37.264Z,43.44
2023-03-29T18:13:44.508Z,43.28
2023-03-29T18:16:50.784Z,43.67
2023-03-29T18:20:21.042Z,43.17
2023-03-29T18:23:34.076Z,43.25
2023-03-29T18:26:43.265Z,42.89
2023-03-29T18:29:49.403Z,43.16
2023-03-29T18:32:56.320Z,43.11
2023-03-29T18:36:03.083Z,43.58
2023-03-29T18:39:14.506Z,43.57
2023-03-29T18:42:22.135Z,43.61
2023-03-29T18:45:29.049Z,43.95
2023-03-29T18:48:42.259Z,43.84
2023-03-29T18:51:50.329Z,44.06
2023-03-29T18:54:59.065Z,44.54
2023-03-29T18:58:25.851Z,44.74
2023-03-29T19:01:31.929Z,45.10
2023-03-29T19:04:38.854Z,45.40
2023-03-29T19:07:44.986Z,45.49
2023-03-29T19:10:54.614Z,45.97
2023-03-29T19:14:00.953Z,46.08
2023-03-29T19:17:11.010Z,46.91
2023-03-29T19:20:18.020Z,48.44
2023-03-29T19:23:30.750Z,48.98
2023-03-29T19:26:39.572Z,48.90
2023-03-29T19:29:46.589Z,48.91
2023-03-29T19:32:53.668Z,48.65
2023-03-29T19:36:08.599Z,48.69
2023-03-29T19:39:15.105Z,48.68
2023-03-29T19:42:24.748Z,48.89
2023-03-29T19:45:31.328Z,48.98
2023-03-29T19:48:38.472Z,49.13
2023-03-29T19:51:44.794Z,49.51
2023-03-29T19:54:51.747Z,49.63
2023-03-29T19:58:09.346Z,49.77
2023-03-29T20:01:21.048Z,49.98
2023-03-29T20:04:36.227Z,50.29
2023-03-29T20:07:43.178Z,50.87
2023-03-29T20:10:49.254Z,51.50
2023-03-29T20:13:58.791Z,52.69
2023-03-29T20:17:11.597Z,52.67
2023-03-29T20:20:19.566Z,52.99
2023-03-29T20:23:25.666Z,53.32
2023-03-29T20:26:32.582Z,53.32
2023-03-29T20:29:44.194Z,53.46
2023-03-29T20:32:53.332Z,54.07
2023-03-29T20:35:59.428Z,54.06
2023-03-29T20:39:08.238Z,54.58
2023-03-29T20:42:20.752Z,54.57
2023-03-29T20:45:51.611Z,54.57
2023-03-29T20:48:58.638Z,54.95
2023-03-29T20:52:06.487Z,55.09
2023-03-29T20:55:19.586Z,55.19
2023-03-29T20:58:31.081Z,55.71
2023-03-29T21:01:41.342Z,55.68
2023-03-29T21:04:52.990Z,55.77
2023-03-29T21:08:01.189Z,55.63
2023-03-29T21:11:21.663Z,55.64
2023-03-29T21:14:32.430Z,55.62
2023-03-29T21:17:51.404Z,55.61
2023-03-29T21:20:59.828Z,55.71
2023-03-29T21:24:13.761Z,55.29
2023-03-29T21:27:19.981Z,55.16
2023-03-29T21:30:27.360Z,54.99
2023-03-29T21:33:38.625Z,54.88
2023-03-29T21:36:45.600Z,54.91
2023-03-29T21:39:51.824Z,54.77
2023-03-29T21:42:58.738Z,55.05
2023-03-29T21:46:04.729Z,55.36
2023-03-29T21:49:14.709Z,55.54
2023-03-29T21:52:21.877Z,55.52
2023-03-29T21:55:28.671Z,56.45
2023-03-29T21:58:34.765Z,56.11
2023-03-29T22:01:51.988Z,56.23
2023-03-29T22:05:00.772Z,56.11
2023-03-29T22:08:10.627Z,56.40
2023-03-29T22:11:19.539Z,56.46
2023-03-29T22:14:26.482Z,56.02
2023-03-29T22:17:32.507Z,55.89
2023-03-29T22:20:42.472Z,55.71
2023-03-29T22:23:52.586Z,55.90
2023-03-29T22:26:59.517Z,55.89
2023-03-29T22:30:06.140Z,55.76
2023-03-29T22:33:13.023Z,56.23
2023-03-29T22:36:25.461Z,55.74
2023-03-29T22:39:32.982Z,55.56
2023-03-29T22:42:45.286Z,55.83
2023-03-29T22:45:52.356Z,55.65
2023-03-29T22:48:59.101Z,55.64
2023-03-29T22:52:10.777Z,55.56
2023-03-29T22:55:17.074Z,55.44
2023-03-29T22:58:32.160Z,55.84
2023-03-29T23:01:38.272Z,55.99
2023-03-29T23:04:49.942Z,56.12
2023-03-29T23:07:58.865Z,56.08
2023-03-29T23:11:07.589Z,56.33
2023-03-29T23:14:15.169Z,56.39
2023-03-29T23:17:22.860Z,56.34
2023-03-29T23:20:29.398Z,56.60
2023-03-29T23:23:39.136Z,56.76
2023-03-29T23:26:45.838Z,57.02
2023-03-29T23:29:52.715Z,56.96
2023-03-29T23:33:00.413Z,57.07
2023-03-29T23:36:11.374Z,57.12
2023-03-29T23:39:25.883Z,57.53
2023-03-29T23:42:33.287Z,57.54
2023-03-29T23:45:40.995Z,57.24
2023-03-29T23:48:49.678Z,57.77
2023-03-29T23:51:56.329Z,57.81
2023-03-29T23:55:11.457Z,57.77
2023-03-29T23:58:19.370Z,58.07
